Terminal Aerodrome Forecast
Issued by NWS

Home | Current Version | Previous Version | Text Only | Print | Product List | Glossary On
Versions: 1 2 3 4 5 6 7 8 9 10 11 12 13
000
FTUS44 KTSA 262300
TAFMLC
TAF
KMLC 262328Z 2700/2724 15005KT P6SM OVC012
     FM270600 35010KT P6SM OVC012
      TEMPO 2706/2710 4SM -RA BR OVC007
     FM271500 34012KT P6SM OVC025
     FM271800 36010KT P6SM OVC040=

USA.gov is the U.S. government's official web portal to all federal, state and local government web resources and services.